sensor_id;sensor_type;location;lat;lon;timestamp;pressure;altitude;pressure_sealevel;temperature;humidity
48942;BME280;35340;52.378;4.648;2023-02-05T00:00:16;103724.41;;;16.34;66.92
48942;BME280;35340;52.378;4.648;2023-02-05T00:03:00;103733.09;;;16.34;66.14
48942;BME280;35340;52.378;4.648;2023-02-05T00:05:26;103731.38;;;16.35;66.12
48942;BME280;35340;52.378;4.648;2023-02-05T00:08:10;103728.66;;;16.32;66.33
48942;BME280;35340;52.378;4.648;2023-02-05T00:10:37;103737.34;;;16.32;66.91
48942;BME280;35340;52.378;4.648;2023-02-05T00:13:10;103747.81;;;16.34;66.00
48942;BME280;35340;52.378;4.648;2023-02-05T00:15:46;103755.53;;;16.32;65.92
48942;BME280;35340;52.378;4.648;2023-02-05T00:18:13;103762.56;;;16.35;66.31
48942;BME280;35340;52.378;4.648;2023-02-05T00:20:38;103745.22;;;16.34;66.03
48942;BME280;35340;52.378;4.648;2023-02-05T00:23:04;103739.31;;;16.38;66.17
48942;BME280;35340;52.378;4.648;2023-02-05T00:25:32;103749.56;;;16.35;65.89
48942;BME280;35340;52.378;4.648;2023-02-05T00:27:59;103753.97;;;16.36;65.73
48942;BME280;35340;52.378;4.648;2023-02-05T00:30:24;103757.44;;;16.36;66.01
48942;BME280;35340;52.378;4.648;2023-02-05T00:32:55;103752.25;;;16.36;65.95
48942;BME280;35340;52.378;4.648;2023-02-05T00:35:21;103745.31;;;16.37;65.80
48942;BME280;35340;52.378;4.648;2023-02-05T00:37:47;103755.72;;;16.37;66.22
48942;BME280;35340;52.378;4.648;2023-02-05T00:40:13;103760.81;;;16.34;65.87
48942;BME280;35340;52.378;4.648;2023-02-05T00:42:39;103754.75;;;16.35;65.69
48942;BME280;35340;52.378;4.648;2023-02-05T00:45:04;103760.88;;;16.35;65.32
48942;BME280;35340;52.378;4.648;2023-02-05T00:47:30;103755.53;;;16.32;66.31
48942;BME280;35340;52.378;4.648;2023-02-05T00:49:55;103756.56;;;16.36;65.95
48942;BME280;35340;52.378;4.648;2023-02-05T00:52:21;103765.31;;;16.38;65.51
48942;BME280;35340;52.378;4.648;2023-02-05T00:54:46;103765.22;;;16.36;65.69
48942;BME280;35340;52.378;4.648;2023-02-05T00:57:19;103763.47;;;16.35;65.62
48942;BME280;35340;52.378;4.648;2023-02-05T00:59:58;103750.47;;;16.35;65.79
48942;BME280;35340;52.378;4.648;2023-02-05T01:02:31;103734.81;;;16.34;65.66
48942;BME280;35340;52.378;4.648;2023-02-05T05:09:56;103816.03;;;16.49;61.99
48942;BME280;35340;52.378;4.648;2023-02-05T05:12:21;103809.19;;;16.51;63.71
48942;BME280;35340;52.378;4.648;2023-02-05T05:14:46;103824.91;;;16.54;62.75
48942;BME280;35340;52.378;4.648;2023-02-05T05:17:12;103830.09;;;16.54;62.23
48942;BME280;35340;52.378;4.648;2023-02-05T05:19:39;103830.97;;;16.55;63.04
48942;BME280;35340;52.378;4.648;2023-02-05T05:22:04;103827.50;;;16.54;62.59
48942;BME280;35340;52.378;4.648;2023-02-05T05:24:29;103838.78;;;16.55;63.21
48942;BME280;35340;52.378;4.648;2023-02-05T05:26:55;103844.91;;;16.55;62.94
48942;BME280;35340;52.378;4.648;2023-02-05T05:29:20;103832.78;;;16.56;62.72
48942;BME280;35340;52.378;4.648;2023-02-05T05:31:45;103840.56;;;16.56;62.72
48942;BME280;35340;52.378;4.648;2023-02-05T05:34:11;103848.56;;;16.60;62.75
48942;BME280;35340;52.378;4.648;2023-02-05T05:36:36;103833.81;;;16.59;62.16
48942;BME280;35340;52.378;4.648;2023-02-05T05:39:04;103842.34;;;16.57;62.48
48942;BME280;35340;52.378;4.648;2023-02-05T05:41:52;103842.41;;;16.58;62.41
48942;BME280;35340;52.378;4.648;2023-02-05T05:44:36;103848.56;;;16.60;62.29
48942;BME280;35340;52.378;4.648;2023-02-05T05:47:02;103839.00;;;16.59;62.82
48942;BME280;35340;52.378;4.648;2023-02-05T05:49:27;103839.97;;;16.61;62.15
48942;BME280;35340;52.378;4.648;2023-02-05T05:51:53;103835.56;;;16.60;62.00
48942;BME280;35340;52.378;4.648;2023-02-05T05:54:18;103836.53;;;16.62;62.79
48942;BME280;35340;52.378;4.648;2023-02-05T05:56:43;103853.00;;;16.63;62.37
48942;BME280;35340;52.378;4.648;2023-02-05T05:59:11;103851.25;;;16.62;62.70
48942;BME280;35340;52.378;4.648;2023-02-05T06:01:37;103860.81;;;16.63;62.78
48942;BME280;35340;52.378;4.648;2023-02-05T06:04:02;103853.97;;;16.65;62.32
48942;BME280;35340;52.378;4.648;2023-02-05T06:09:15;103852.19;;;16.64;62.42
48942;BME280;35340;52.378;4.648;2023-02-05T06:22:04;103880.84;;;16.65;62.43
48942;BME280;35340;52.378;4.648;2023-02-05T07:11:03;103973.47;;;16.81;60.09
48942;BME280;35340;52.378;4.648;2023-02-05T07:13:29;103978.72;;;16.83;59.72
48942;BME280;35340;52.378;4.648;2023-02-05T07:15:55;103980.59;;;16.85;60.27
48942;BME280;35340;52.378;4.648;2023-02-05T07:18:20;103993.63;;;16.87;59.38
48942;BME280;35340;52.378;4.648;2023-02-05T07:20:46;104001.63;;;16.92;59.42
48942;BME280;35340;52.378;4.648;2023-02-05T07:23:12;104008.00;;;16.98;59.03
48942;BME280;35340;52.378;4.648;2023-02-05T07:25:38;104012.38;;;16.99;59.43
48942;BME280;35340;52.378;4.648;2023-02-05T07:28:05;104011.63;;;17.02;59.04
48942;BME280;35340;52.378;4.648;2023-02-05T07:30:30;104018.63;;;17.03;59.09
48942;BME280;35340;52.378;4.648;2023-02-05T07:32:56;104023.75;;;16.82;59.70
48942;BME280;35340;52.378;4.648;2023-02-05T07:35:21;104023.53;;;16.77;60.61
48942;BME280;35340;52.378;4.648;2023-02-05T07:37:47;104027.25;;;16.82;60.25
48942;BME280;35340;52.378;4.648;2023-02-05T07:40:13;104034.16;;;16.82;61.46
48942;BME280;35340;52.378;4.648;2023-02-05T07:42:39;104027.00;;;16.78;61.33
48942;BME280;35340;52.378;4.648;2023-02-05T07:45:04;104036.47;;;16.76;61.87
48942;BME280;35340;52.378;4.648;2023-02-05T07:47:31;104026.13;;;16.77;61.93
48942;BME280;35340;52.378;4.648;2023-02-05T07:49:57;104032.22;;;16.78;61.92
48942;BME280;35340;52.378;4.648;2023-02-05T07:52:22;104037.41;;;16.78;61.91
48942;BME280;35340;52.378;4.648;2023-02-05T07:54:47;104027.84;;;16.77;61.99
48942;BME280;35340;52.378;4.648;2023-02-05T07:57:13;104027.84;;;16.77;62.08
48942;BME280;35340;52.378;4.648;2023-02-05T07:59:38;104039.94;;;16.76;62.01
48942;BME280;35340;52.378;4.648;2023-02-05T08:02:04;104042.69;;;16.79;61.98
48942;BME280;35340;52.378;4.648;2023-02-05T08:04:30;104037.41;;;16.78;62.15
48942;BME280;35340;52.378;4.648;2023-02-05T08:06:55;104039.22;;;16.79;61.92
48942;BME280;35340;52.378;4.648;2023-02-05T08:09:20;104041.00;;;16.80;62.12
48942;BME280;35340;52.378;4.648;2023-02-05T08:11:46;104050.50;;;16.79;62.14
48942;BME280;35340;52.378;4.648;2023-02-05T08:14:11;104043.63;;;16.80;62.09
48942;BME280;35340;52.378;4.648;2023-02-05T08:16:36;104062.09;;;16.86;60.21
48942;BME280;35340;52.378;4.648;2023-02-05T08:19:02;104053.81;;;16.95;61.07
48942;BME280;35340;52.378;4.648;2023-02-05T08:21:27;104046.69;;;16.91;60.35
48942;BME280;35340;52.378;4.648;2023-02-05T08:23:53;104047.56;;;17.11;60.60
48942;BME280;35340;52.378;4.648;2023-02-05T08:26:21;104068.25;;;17.08;60.82
48942;BME280;35340;52.378;4.648;2023-02-05T08:28:46;104056.69;;;17.01;61.14
48942;BME280;35340;52.378;4.648;2023-02-05T08:31:14;104066.94;;;16.98;61.24
48942;BME280;35340;52.378;4.648;2023-02-05T08:33:40;104071.19;;;16.96;60.69
48942;BME280;35340;52.378;4.648;2023-02-05T08:36:06;104070.22;;;16.94;61.21
48942;BME280;35340;52.378;4.648;2023-02-05T08:38:31;104072.84;;;16.94;61.04
48942;BME280;35340;52.378;4.648;2023-02-05T08:40:57;104074.56;;;16.93;61.20
48942;BME280;35340;52.378;4.648;2023-02-05T08:43:22;104086.81;;;16.96;60.68
48942;BME280;35340;52.378;4.648;2023-02-05T08:45:48;104092.09;;;16.97;60.74
48942;BME280;35340;52.378;4.648;2023-02-05T08:48:13;104100.72;;;16.96;61.20
48942;BME280;35340;52.378;4.648;2023-02-05T08:50:39;104113.72;;;16.96;60.76
48942;BME280;35340;52.378;4.648;2023-02-05T08:53:04;104117.13;;;16.95;60.81
48942;BME280;35340;52.378;4.648;2023-02-05T08:55:31;104131.94;;;16.96;60.70
48942;BME280;35340;52.378;4.648;2023-02-05T08:57:57;104122.91;;;17.08;58.38
48942;BME280;35340;52.378;4.648;2023-02-05T09:00:23;104128.59;;;17.18;58.07
48942;BME280;35340;52.378;4.648;2023-02-05T09:02:48;104119.94;;;17.19;58.37
48942;BME280;35340;52.378;4.648;2023-02-05T09:05:14;104118.22;;;17.20;58.12
48942;BME280;35340;52.378;4.648;2023-02-05T09:07:39;104118.50;;;17.26;58.17
48942;BME280;35340;52.378;4.648;2023-02-05T09:10:07;104120.34;;;17.28;57.56
48942;BME280;35340;52.378;4.648;2023-02-05T09:12:33;104134.88;;;17.23;59.11
48942;BME280;35340;52.378;4.648;2023-02-05T09:14:58;104114.81;;;17.21;59.00
48942;BME280;35340;52.378;4.648;2023-02-05T09:17:23;104119.13;;;17.20;59.24
48942;BME280;35340;52.378;4.648;2023-02-05T09:19:49;104114.75;;;17.19;59.45
48942;BME280;35340;52.378;4.648;2023-02-05T09:22:14;104113.84;;;17.19;58.97
48942;BME280;35340;52.378;4.648;2023-02-05T09:24:40;104111.09;;;17.16;60.17
48942;BME280;35340;52.378;4.648;2023-02-05T09:27:05;104107.63;;;17.15;59.21
48942;BME280;35340;52.378;4.648;2023-02-05T09:29:30;104110.28;;;17.17;59.73
48942;BME280;35340;52.378;4.648;2023-02-05T09:31:56;104123.22;;;17.15;59.85
48942;BME280;35340;52.378;4.648;2023-02-05T09:34:21;104123.38;;;17.18;59.25
48942;BME280;35340;52.378;4.648;2023-02-05T09:36:47;104119.88;;;17.18;59.44
48942;BME280;35340;52.378;4.648;2023-02-05T09:39:12;104100.75;;;17.17;60.16
48942;BME280;35340;52.378;4.648;2023-02-05T09:47:25;104128.59;;;17.18;59.20
48942;BME280;35340;52.378;4.648;2023-02-05T09:50:13;104133.84;;;17.20;59.25
48942;BME280;35340;52.378;4.648;2023-02-05T09:52:45;104158.19;;;17.20;59.16
48942;BME280;35340;52.378;4.648;2023-02-05T09:55:21;104157.34;;;17.21;59.06
48942;BME280;35340;52.378;4.648;2023-02-05T09:57:50;104154.66;;;17.20;58.99
48942;BME280;35340;52.378;4.648;2023-02-05T10:00:23;104141.66;;;17.20;59.18
48942;BME280;35340;52.378;4.648;2023-02-05T10:05:20;104161.03;;;17.26;58.42
48942;BME280;35340;52.378;4.648;2023-02-05T10:10:26;104141.03;;;17.25;58.59
48942;BME280;35340;52.378;4.648;2023-02-05T10:13:13;104156.47;;;17.21;59.04
48942;BME280;35340;52.378;4.648;2023-02-05T10:24:31;104134.75;;;17.20;58.85
48942;BME280;35340;52.378;4.648;2023-02-05T10:29:59;104144.94;;;17.16;58.83
48942;BME280;35340;52.378;4.648;2023-02-05T10:35:24;104150.13;;;17.16;59.36
48942;BME280;35340;52.378;4.648;2023-02-05T10:37:54;104148.72;;;17.22;57.79
48942;BME280;35340;52.378;4.648;2023-02-05T10:40:27;104145.66;;;17.31;56.90
48942;BME280;35340;52.378;4.648;2023-02-05T10:43:03;104158.84;;;17.36;56.96
48942;BME280;35340;52.378;4.648;2023-02-05T10:45:29;104158.91;;;17.37;56.55
48942;BME280;35340;52.378;4.648;2023-02-05T10:51:01;104162.63;;;17.42;56.27
48942;BME280;35340;52.378;4.648;2023-02-05T10:53:28;104157.41;;;17.42;56.43
48942;BME280;35340;52.378;4.648;2023-02-05T10:55:56;104160.13;;;17.45;56.24
48942;BME280;35340;52.378;4.648;2023-02-05T11:01:21;104142.88;;;17.47;55.76
48942;BME280;35340;52.378;4.648;2023-02-05T11:06:19;104148.06;;;17.47;56.13
48942;BME280;35340;52.378;4.648;2023-02-05T11:08:44;104140.28;;;17.47;55.87
48942;BME280;35340;52.378;4.648;2023-02-05T11:11:37;104131.66;;;17.48;56.14
48942;BME280;35340;52.378;4.648;2023-02-05T11:14:05;104123.88;;;17.50;56.03
48942;BME280;35340;52.378;4.648;2023-02-05T11:16:42;104130.81;;;17.50;55.87
48942;BME280;35340;52.378;4.648;2023-02-05T11:19:19;104127.44;;;17.52;55.33
48942;BME280;35340;52.378;4.648;2023-02-05T11:21:57;104130.94;;;17.53;55.55
48942;BME280;35340;52.378;4.648;2023-02-05T11:24:36;104148.34;;;17.54;55.37
48942;BME280;35340;52.378;4.648;2023-02-05T11:29:40;104147.59;;;17.56;55.18
48942;BME280;35340;52.378;4.648;2023-02-05T11:32:39;104153.00;;;17.61;54.97
48942;BME280;35340;52.378;4.648;2023-02-05T11:35:16;104158.19;;;17.61;54.84
48942;BME280;35340;52.378;4.648;2023-02-05T11:37:48;104147.78;;;17.61;54.76
48942;BME280;35340;52.378;4.648;2023-02-05T11:40:22;104141.78;;;17.62;55.07
48942;BME280;35340;52.378;4.648;2023-02-05T11:43:00;104146.81;;;17.59;55.11
48942;BME280;35340;52.378;4.648;2023-02-05T11:45:28;104158.28;;;17.62;54.88
48942;BME280;35340;52.378;4.648;2023-02-05T11:47:54;104165.25;;;17.63;54.74
48942;BME280;35340;52.378;4.648;2023-02-05T11:50:26;104161.75;;;17.63;54.68
48942;BME280;35340;52.378;4.648;2023-02-05T11:52:53;104164.50;;;17.66;54.66
48942;BME280;35340;52.378;4.648;2023-02-05T11:55:38;104159.31;;;17.66;54.77
48942;BME280;35340;52.378;4.648;2023-02-05T11:58:09;104156.69;;;17.66;54.65
48942;BME280;35340;52.378;4.648;2023-02-05T12:01:21;104161.94;;;17.67;54.35
48942;BME280;35340;52.378;4.648;2023-02-05T12:06:44;104169.09;;;17.72;54.36
48942;BME280;35340;52.378;4.648;2023-02-05T12:09:18;104161.25;;;17.72;54.21
48942;BME280;35340;52.378;4.648;2023-02-05T12:14:31;104163.06;;;17.73;54.25
48942;BME280;35340;52.378;4.648;2023-02-05T12:19:50;104166.56;;;17.73;54.29
48942;BME280;35340;52.378;4.648;2023-02-05T12:22:26;104159.63;;;17.74;53.97
48942;BME280;35340;52.378;4.648;2023-02-05T12:25:19;104158.84;;;17.76;54.17
48942;BME280;35340;52.378;4.648;2023-02-05T12:28:01;104155.44;;;17.77;54.14
48942;BME280;35340;52.378;4.648;2023-02-05T12:30:45;104161.59;;;17.79;53.91
48942;BME280;35340;52.378;4.648;2023-02-05T12:33:21;104147.75;;;17.80;53.96
48942;BME280;35340;52.378;4.648;2023-02-05T12:36:17;104155.66;;;17.82;54.11
48942;BME280;35340;52.378;4.648;2023-02-05T12:46:50;104162.72;;;17.84;54.25
48942;BME280;35340;52.378;4.648;2023-02-05T12:53:04;104181.78;;;17.83;54.50
48942;BME280;35340;52.378;4.648;2023-02-05T12:58:33;104180.66;;;17.78;54.50
48942;BME280;35340;52.378;4.648;2023-02-05T13:01:05;104178.88;;;17.77;54.55
48942;BME280;35340;52.378;4.648;2023-02-05T13:03:36;104182.28;;;17.76;54.54
48942;BME280;35340;52.378;4.648;2023-02-05T13:06:14;104187.38;;;17.73;54.75
48942;BME280;35340;52.378;4.648;2023-02-05T13:13:52;104196.94;;;17.73;54.35
48942;BME280;35340;52.378;4.648;2023-02-05T13:16:21;104190.81;;;17.72;54.39
48942;BME280;35340;52.378;4.648;2023-02-05T13:18:58;104193.41;;;17.72;54.37
48942;BME280;35340;52.378;4.648;2023-02-05T13:21:26;104189.84;;;17.70;54.22
48942;BME280;35340;52.378;4.648;2023-02-05T13:24:37;104202.88;;;17.70;54.25
48942;BME280;35340;52.378;4.648;2023-02-05T13:27:27;104187.25;;;17.70;54.54
48942;BME280;35340;52.378;4.648;2023-02-05T13:30:17;104183.75;;;17.69;54.39
48942;BME280;35340;52.378;4.648;2023-02-05T13:32:49;104193.38;;;17.71;54.26
48942;BME280;35340;52.378;4.648;2023-02-05T13:35:16;104193.38;;;17.71;54.37
48942;BME280;35340;52.378;4.648;2023-02-05T13:46:48;104210.44;;;17.64;54.34
48942;BME280;35340;52.378;4.648;2023-02-05T14:00:15;104222.63;;;17.65;54.01
48942;BME280;35340;52.378;4.648;2023-02-05T14:02:46;104216.53;;;17.64;54.21
48942;BME280;35340;52.378;4.648;2023-02-05T14:05:14;104211.31;;;17.64;54.16
48942;BME280;35340;52.378;4.648;2023-02-05T14:07:48;104215.78;;;17.67;53.94
48942;BME280;35340;52.378;4.648;2023-02-05T14:10:39;104215.78;;;17.67;54.36
48942;BME280;35340;52.378;4.648;2023-02-05T14:13:24;104226.19;;;17.67;54.36
48942;BME280;35340;52.378;4.648;2023-02-05T14:15:52;104208.72;;;17.64;54.36
48942;BME280;35340;52.378;4.648;2023-02-05T14:26:54;104215.41;;;17.59;54.95
48942;BME280;35340;52.378;4.648;2023-02-05T14:29:47;104214.53;;;17.59;55.00
48942;BME280;35340;52.378;4.648;2023-02-05T14:37:44;104219.75;;;17.59;54.88
48942;BME280;35340;52.378;4.648;2023-02-05T14:40:33;104224.00;;;17.57;54.89
48942;BME280;35340;52.378;4.648;2023-02-05T14:43:22;104226.59;;;17.57;54.84
48942;BME280;35340;52.378;4.648;2023-02-05T14:45:51;104225.72;;;17.56;54.82
48942;BME280;35340;52.378;4.648;2023-02-05T14:48:29;104225.63;;;17.55;54.49
48942;BME280;35340;52.378;4.648;2023-02-05T14:51:05;104225.72;;;17.56;54.55
48942;BME280;35340;52.378;4.648;2023-02-05T14:53:33;104229.06;;;17.54;54.61
48942;BME280;35340;52.378;4.648;2023-02-05T14:56:00;104235.09;;;17.53;54.69
48942;BME280;35340;52.378;4.648;2023-02-05T14:58:33;104242.09;;;17.54;54.17
48942;BME280;35340;52.378;4.648;2023-02-05T15:02:00;104239.41;;;17.52;54.71
48942;BME280;35340;52.378;4.648;2023-02-05T15:04:21;104235.03;;;17.51;54.36
48942;BME280;35340;52.378;4.648;2023-02-05T15:06:48;104233.25;;;17.50;54.74
48942;BME280;35340;52.378;4.648;2023-02-05T15:09:18;104229.75;;;17.50;54.56
48942;BME280;35340;52.378;4.648;2023-02-05T15:12:07;104241.91;;;17.49;54.62
48942;BME280;35340;52.378;4.648;2023-02-05T15:14:52;104247.16;;;17.51;54.86
48942;BME280;35340;52.378;4.648;2023-02-05T15:20:11;104253.94;;;17.47;54.83
48942;BME280;35340;52.378;4.648;2023-02-05T15:22:44;104241.72;;;17.46;54.79
48942;BME280;35340;52.378;4.648;2023-02-05T15:25:36;104253.06;;;17.46;54.74
48942;BME280;35340;52.378;4.648;2023-02-05T15:28:22;104259.91;;;17.44;54.48
48942;BME280;35340;52.378;4.648;2023-02-05T15:31:02;104259.91;;;17.44;54.71
48942;BME280;35340;52.378;4.648;2023-02-05T15:33:37;104266.81;;;17.44;54.74
48942;BME280;35340;52.378;4.648;2023-02-05T15:36:10;104255.50;;;17.43;54.72
48942;BME280;35340;52.378;4.648;2023-02-05T15:38:48;104260.63;;;17.42;54.58
48942;BME280;35340;52.378;4.648;2023-02-05T15:41:18;104264.97;;;17.41;54.82
48942;BME280;35340;52.378;4.648;2023-02-05T15:44:00;104260.59;;;17.40;54.56
48942;BME280;35340;52.378;4.648;2023-02-05T15:46:26;104277.09;;;17.41;54.78
48942;BME280;35340;52.378;4.648;2023-02-05T15:48:53;104280.53;;;17.40;54.60
48942;BME280;35340;52.378;4.648;2023-02-05T15:53:47;104286.47;;;17.37;54.70
48942;BME280;35340;52.378;4.648;2023-02-05T15:58:58;104307.38;;;17.39;54.54
48942;BME280;35340;52.378;4.648;2023-02-05T16:03:52;104325.69;;;17.40;55.64
48942;BME280;35340;52.378;4.648;2023-02-05T16:06:22;104326.66;;;17.42;55.24
48942;BME280;35340;52.378;4.648;2023-02-05T16:08:49;104338.84;;;17.43;55.61
48942;BME280;35340;52.378;4.648;2023-02-05T16:11:31;104337.09;;;17.44;55.68
48942;BME280;35340;52.378;4.648;2023-02-05T16:14:19;104331.78;;;17.41;56.08
48942;BME280;35340;52.378;4.648;2023-02-05T16:19:37;104331.56;;;17.36;56.40
48942;BME280;35340;52.378;4.648;2023-02-05T16:25:05;104340.03;;;17.32;56.61
48942;BME280;35340;52.378;4.648;2023-02-05T16:27:40;104333.00;;;17.30;56.63
48942;BME280;35340;52.378;4.648;2023-02-05T16:30:20;104334.72;;;17.29;56.87
48942;BME280;35340;52.378;4.648;2023-02-05T16:32:52;104333.88;;;17.30;56.80
48942;BME280;35340;52.378;4.648;2023-02-05T16:37:46;104348.75;;;17.33;56.36
48942;BME280;35340;52.378;4.648;2023-02-05T16:40:12;104357.44;;;17.33;56.36
48942;BME280;35340;52.378;4.648;2023-02-05T16:42:39;104356.50;;;17.31;56.26
48942;BME280;35340;52.378;4.648;2023-02-05T16:47:33;104362.50;;;17.30;56.03
48942;BME280;35340;52.378;4.648;2023-02-05T16:49:59;104361.72;;;17.31;56.23
48942;BME280;35340;52.378;4.648;2023-02-05T16:52:35;104363.47;;;17.32;56.24
48942;BME280;35340;52.378;4.648;2023-02-05T16:57:53;104356.56;;;17.33;56.10
48942;BME280;35340;52.378;4.648;2023-02-05T17:00:22;104361.75;;;17.33;56.37
48942;BME280;35340;52.378;4.648;2023-02-05T17:02:57;104371.38;;;17.34;56.49
48942;BME280;35340;52.378;4.648;2023-02-05T17:05:30;104369.66;;;17.34;56.72
48942;BME280;35340;52.378;4.648;2023-02-05T17:08:04;104362.63;;;17.33;56.75
48942;BME280;35340;52.378;4.648;2023-02-05T17:10:31;104367.03;;;17.34;56.75
48942;BME280;35340;52.378;4.648;2023-02-05T17:13:43;104364.44;;;17.34;56.72
48942;BME280;35340;52.378;4.648;2023-02-05T17:19:31;104377.47;;;17.34;56.79
48942;BME280;35340;52.378;4.648;2023-02-05T17:24:42;104380.16;;;17.36;56.86
48942;BME280;35340;52.378;4.648;2023-02-05T17:27:13;104385.34;;;17.36;56.62
48942;BME280;35340;52.378;4.648;2023-02-05T17:29:40;104380.16;;;17.36;56.87
48942;BME280;35340;52.378;4.648;2023-02-05T17:32:05;104384.44;;;17.35;57.00
48942;BME280;35340;52.378;4.648;2023-02-05T17:34:31;104388.84;;;17.36;57.16
48942;BME280;35340;52.378;4.648;2023-02-05T17:36:57;104371.41;;;17.35;57.03
48942;BME280;35340;52.378;4.648;2023-02-05T17:39:22;104367.94;;;17.35;57.12
48942;BME280;35340;52.378;4.648;2023-02-05T17:41:47;104383.63;;;17.36;56.89
48942;BME280;35340;52.378;4.648;2023-02-05T17:44:29;104383.63;;;17.36;57.17
48942;BME280;35340;52.378;4.648;2023-02-05T17:46:56;104386.25;;;17.36;57.14
48942;BME280;35340;52.378;4.648;2023-02-05T17:49:22;104384.50;;;17.37;57.27
48942;BME280;35340;52.378;4.648;2023-02-05T17:51:47;104385.34;;;17.36;57.53
48942;BME280;35340;52.378;4.648;2023-02-05T17:54:17;104374.03;;;17.35;57.50
48942;BME280;35340;52.378;4.648;2023-02-05T17:56:44;104381.91;;;17.37;57.40
48942;BME280;35340;52.378;4.648;2023-02-05T17:59:11;104381.84;;;17.35;57.25
48942;BME280;35340;52.378;4.648;2023-02-05T18:01:37;104368.81;;;17.35;57.66
48942;BME280;35340;52.378;4.648;2023-02-05T18:04:03;104374.03;;;17.35;57.13
48942;BME280;35340;52.378;4.648;2023-02-05T18:06:28;104375.75;;;17.35;57.39
48942;BME280;35340;52.378;4.648;2023-02-05T18:08:54;104379.22;;;17.35;57.28
48942;BME280;35340;52.378;4.648;2023-02-05T18:11:19;104384.44;;;17.35;57.33
48942;BME280;35340;52.378;4.648;2023-02-05T18:13:45;104393.06;;;17.34;57.19
48942;BME280;35340;52.378;4.648;2023-02-05T18:16:10;104388.75;;;17.35;57.55
48942;BME280;35340;52.378;4.648;2023-02-05T18:18:55;104380.94;;;17.35;57.46
48942;BME280;35340;52.378;4.648;2023-02-05T18:21:20;104374.84;;;17.34;57.53
48942;BME280;35340;52.378;4.648;2023-02-05T18:23:47;104376.72;;;17.37;57.58
48942;BME280;35340;52.378;4.648;2023-02-05T18:26:15;104380.16;;;17.36;57.51
48942;BME280;35340;52.378;4.648;2023-02-05T18:28:41;104382.75;;;17.36;57.90
48942;BME280;35340;52.378;4.648;2023-02-05T18:31:13;104403.56;;;17.36;57.61
48942;BME280;35340;52.378;4.648;2023-02-05T18:33:39;104407.06;;;17.36;57.75
48942;BME280;35340;52.378;4.648;2023-02-05T18:36:07;104403.56;;;17.36;57.76
48942;BME280;35340;52.378;4.648;2023-02-05T18:38:35;104400.13;;;17.37;57.72
48942;BME280;35340;52.378;4.648;2023-02-05T18:41:21;104397.53;;;17.37;57.67
48942;BME280;35340;52.378;4.648;2023-02-05T18:43:46;104408.84;;;17.37;57.63
48942;BME280;35340;52.378;4.648;2023-02-05T18:46:14;104415.75;;;17.37;57.88
48942;BME280;35340;52.378;4.648;2023-02-05T18:48:40;104419.25;;;17.37;58.05
48942;BME280;35340;52.378;4.648;2023-02-05T18:51:15;104432.25;;;17.37;57.99
48942;BME280;35340;52.378;4.648;2023-02-05T18:53:47;104439.28;;;17.38;58.18
48942;BME280;35340;52.378;4.648;2023-02-05T18:56:32;104442.69;;;17.37;57.92
48942;BME280;35340;52.378;4.648;2023-02-05T18:59:00;104443.59;;;17.38;57.80
48942;BME280;35340;52.378;4.648;2023-02-05T19:01:29;104438.31;;;17.36;58.20
48942;BME280;35340;52.378;4.648;2023-02-05T19:04:00;104442.69;;;17.37;58.19
48942;BME280;35340;52.378;4.648;2023-02-05T19:06:27;104447.88;;;17.37;58.08
48942;BME280;35340;52.378;4.648;2023-02-05T19:08:55;104450.44;;;17.36;57.97
48942;BME280;35340;52.378;4.648;2023-02-05T19:11:22;104450.50;;;17.37;57.87
48942;BME280;35340;52.378;4.648;2023-02-05T19:16:20;104461.81;;;17.38;57.89
48942;BME280;35340;52.378;4.648;2023-02-05T19:18:46;104460.09;;;17.38;58.08
48942;BME280;35340;52.378;4.648;2023-02-05T19:21:15;104448.72;;;17.36;57.93
48942;BME280;35340;52.378;4.648;2023-02-05T19:23:41;104431.38;;;17.37;57.91
48942;BME280;35340;52.378;4.648;2023-02-05T19:26:11;104438.31;;;17.36;58.06
48942;BME280;35340;52.378;4.648;2023-02-05T19:28:41;104444.41;;;17.37;58.00
48942;BME280;35340;52.378;4.648;2023-02-05T19:31:09;104450.50;;;17.37;58.08
48942;BME280;35340;52.378;4.648;2023-02-05T19:33:36;104457.50;;;17.38;58.06
48942;BME280;35340;52.378;4.648;2023-02-05T19:36:04;104440.16;;;17.39;57.95
48942;BME280;35340;52.378;4.648;2023-02-05T19:38:30;104448.09;;;17.42;58.07
48942;BME280;35340;52.378;4.648;2023-02-05T19:40:56;104437.78;;;17.43;58.24
48942;BME280;35340;52.378;4.648;2023-02-05T19:43:21;104428.09;;;17.41;57.99
48942;BME280;35340;52.378;4.648;2023-02-05T19:45:47;104433.31;;;17.41;58.23
48942;BME280;35340;52.378;4.648;2023-02-05T19:48:13;104440.16;;;17.39;58.14
48942;BME280;35340;52.378;4.648;2023-02-05T19:50:40;104432.34;;;17.39;58.13
48942;BME280;35340;52.378;4.648;2023-02-05T19:53:47;104435.78;;;17.38;58.39
48942;BME280;35340;52.378;4.648;2023-02-05T19:56:31;104440.06;;;17.37;58.44
48942;BME280;35340;52.378;4.648;2023-02-05T19:59:00;104429.66;;;17.37;58.50
48942;BME280;35340;52.378;4.648;2023-02-05T20:04:13;104430.94;;;17.45;59.43
48942;BME280;35340;52.378;4.648;2023-02-05T20:06:39;104443.19;;;17.48;59.42
48942;BME280;35340;52.378;4.648;2023-02-05T20:09:06;104446.78;;;17.50;59.67
48942;BME280;35340;52.378;4.648;2023-02-05T20:11:47;104448.56;;;17.51;59.75
48942;BME280;35340;52.378;4.648;2023-02-05T20:14:14;104456.38;;;17.51;59.59
48942;BME280;35340;52.378;4.648;2023-02-05T20:16:40;104456.38;;;17.51;59.47
48942;BME280;35340;52.378;4.648;2023-02-05T20:19:06;104453.78;;;17.51;59.48
48942;BME280;35340;52.378;4.648;2023-02-05T20:21:33;104453.78;;;17.51;59.56
48942;BME280;35340;52.378;4.648;2023-02-05T20:23:59;104451.19;;;17.51;59.48
48942;BME280;35340;52.378;4.648;2023-02-05T20:26:26;104452.06;;;17.52;59.45